Terminal Aerodrome Forecast
Issued by NWS

Home | Current Version | Previous Version | Graphics & Text | Print | Product List | Glossary On
Versions: 1 2 3 4 5 6 7 8 9 10 11 12 13 14 15
000
FTUS42 KMHX 202321
TAFISO
TAF
KISO 202321Z 2100/2124 13003KT P6SM FEW250
     FM210700 00000KT 3SM BR FEW250
     FM210800 00000KT 1SM BR BKN005
     FM211200 00000KT 3SM BR SCT005
     FM211300 10005KT P6SM SCT050
      AMD NOT SKED=

USA.gov is the U.S. government's official web portal to all federal, state and local government web resources and services.